createdAt,value
2023-11-19T00:03:18.806Z,3.85
2023-11-19T00:05:45.902Z,3.83
2023-11-19T00:08:12.243Z,3.83
2023-11-19T00:10:38.625Z,3.90
2023-11-19T00:13:05.026Z,3.90
2023-11-19T00:15:31.356Z,3.92
2023-11-19T00:18:00.301Z,3.86
2023-11-19T00:20:29.188Z,3.89
2023-11-19T00:22:56.304Z,3.96
2023-11-19T00:25:22.808Z,4.01
2023-11-19T00:27:51.032Z,4.00
2023-11-19T00:30:17.426Z,4.02
2023-11-19T00:32:43.805Z,4.08
2023-11-19T00:35:10.811Z,4.05
2023-11-19T00:37:37.183Z,4.10
2023-11-19T00:40:05.931Z,4.04
2023-11-19T00:42:32.402Z,4.02
2023-11-19T00:44:58.796Z,4.05
2023-11-19T00:47:25.573Z,4.11
2023-11-19T00:49:52.125Z,4.11
2023-11-19T00:52:19.248Z,4.16
2023-11-19T00:54:45.690Z,4.25
2023-11-19T00:57:12.664Z,4.24
2023-11-19T00:59:41.889Z,4.34
2023-11-19T01:02:08.235Z,4.37
2023-11-19T01:04:35.555Z,4.41
2023-11-19T01:07:04.212Z,4.44
2023-11-19T01:09:32.499Z,4.46
2023-11-19T01:11:58.945Z,4.51
2023-11-19T01:14:25.923Z,4.51
2023-11-19T01:16:54.277Z,4.54
2023-11-19T01:19:21.332Z,4.53
2023-11-19T01:21:47.739Z,4.50
2023-11-19T01:24:14.712Z,4.55
2023-11-19T01:26:45.456Z,4.64
2023-11-19T01:29:13.954Z,4.70
2023-11-19T01:31:41.072Z,4.73
2023-11-19T01:34:07.578Z,4.77
2023-11-19T01:36:33.999Z,4.80
2023-11-19T01:39:00.432Z,4.78
2023-11-19T01:41:26.776Z,4.85
2023-11-19T01:43:53.137Z,4.88
2023-11-19T01:46:19.546Z,4.92
2023-11-19T01:48:47.697Z,5.01
2023-11-19T01:51:23.102Z,5.02
2023-11-19T01:53:50.538Z,5.09
2023-11-19T01:56:17.269Z,5.08
2023-11-19T01:58:45.576Z,5.19
2023-11-19T02:01:13.168Z,5.19
2023-11-19T02:03:40.109Z,5.25
2023-11-19T02:06:10.477Z,5.28
2023-11-19T02:08:37.517Z,5.29
2023-11-19T02:11:04.250Z,5.39
2023-11-19T02:13:30.618Z,5.44
2023-11-19T02:15:57.044Z,5.56
2023-11-19T02:18:28.053Z,5.67
2023-11-19T02:20:54.818Z,5.78
2023-11-19T02:23:22.341Z,5.86
2023-11-19T02:26:11.864Z,5.91
2023-11-19T02:28:39.494Z,6.00
2023-11-19T02:31:06.791Z,6.09
2023-11-19T02:33:33.309Z,6.14
2023-11-19T02:35:59.714Z,6.23
2023-11-19T02:38:26.197Z,6.24
2023-11-19T02:40:52.562Z,6.31
2023-11-19T02:43:19.688Z,6.37
2023-11-19T02:45:47.021Z,6.43
2023-11-19T02:48:14.745Z,6.48
2023-11-19T02:50:41.652Z,6.52
2023-11-19T02:53:08.072Z,6.59
2023-11-19T02:55:38.262Z,6.63
2023-11-19T02:58:10.084Z,6.64
2023-11-19T03:00:37.452Z,6.66
2023-11-19T03:03:18.026Z,6.67
2023-11-19T03:05:45.363Z,6.63
2023-11-19T03:08:23.200Z,6.68
2023-11-19T03:10:50.176Z,6.68
2023-11-19T03:13:17.446Z,6.67
2023-11-19T03:15:44.008Z,6.74
2023-11-19T03:18:11.031Z,6.72
2023-11-19T03:20:37.434Z,6.74
2023-11-19T03:23:03.902Z,6.78
2023-11-19T03:25:33.935Z,6.80
2023-11-19T03:28:01.419Z,6.83
2023-11-19T03:32:58.584Z,6.90
2023-11-19T03:35:25.643Z,6.91
2023-11-19T03:37:52.195Z,6.95
2023-11-19T03:40:19.569Z,6.98
2023-11-19T03:42:45.954Z,7.01
2023-11-19T03:45:12.628Z,7.04
2023-11-19T03:47:39.288Z,7.04
2023-11-19T03:50:07.027Z,7.01
2023-11-19T03:52:44.115Z,7.02
2023-11-19T03:55:10.934Z,6.93
2023-11-19T03:57:37.260Z,7.07
2023-11-19T04:00:09.375Z,7.10
2023-11-19T04:02:35.789Z,7.15
2023-11-19T04:05:02.197Z,7.19
2023-11-19T04:07:28.561Z,7.20
2023-11-19T04:09:55.578Z,7.13
2023-11-19T04:12:22.416Z,7.19
2023-11-19T04:17:26.509Z,7.24
2023-11-19T04:19:52.876Z,7.28
2023-11-19T04:22:19.266Z,7.20
2023-11-19T04:24:46.106Z,7.25
2023-11-19T04:27:13.131Z,7.31
2023-11-19T04:29:39.465Z,7.25
2023-11-19T04:32:06.706Z,7.33
2023-11-19T04:34:33.166Z,7.26
2023-11-19T04:37:13.022Z,7.39
2023-11-19T04:39:40.154Z,7.62
2023-11-19T04:42:07.248Z,7.90
2023-11-19T04:44:34.398Z,8.17
2023-11-19T04:47:00.984Z,8.56
2023-11-19T04:49:27.612Z,8.73
2023-11-19T04:51:54.067Z,8.86
2023-11-19T04:54:20.397Z,9.01
2023-11-19T04:56:46.994Z,9.10
2023-11-19T04:59:13.396Z,9.21
2023-11-19T05:01:40.414Z,9.28
2023-11-19T05:04:08.405Z,9.32
2023-11-19T05:06:35.498Z,9.35
2023-11-19T05:09:06.504Z,9.37
2023-11-19T05:11:33.194Z,9.39
2023-11-19T05:13:59.524Z,9.44
2023-11-19T05:16:26.755Z,9.47
2023-11-19T05:18:53.787Z,9.44
2023-11-19T05:21:20.128Z,9.49
2023-11-19T05:23:47.182Z,9.52
2023-11-19T05:26:18.713Z,9.56
2023-11-19T05:28:45.068Z,9.55
2023-11-19T05:31:11.524Z,9.53
2023-11-19T05:33:37.902Z,9.50
2023-11-19T05:36:06.111Z,9.54
2023-11-19T05:38:32.434Z,9.53
2023-11-19T05:40:58.918Z,9.49
2023-11-19T05:43:25.297Z,9.53
2023-11-19T05:45:51.675Z,9.53
2023-11-19T05:48:18.183Z,9.53
2023-11-19T05:50:45.030Z,9.50
2023-11-19T05:53:13.761Z,9.54
2023-11-19T05:55:54.994Z,9.56
2023-11-19T05:58:26.924Z,9.52
2023-11-19T06:00:53.650Z,9.50
2023-11-19T06:03:20.073Z,9.53
2023-11-19T06:05:46.703Z,9.53
2023-11-19T06:08:13.787Z,9.53
2023-11-19T06:10:40.202Z,9.56
2023-11-19T06:13:06.864Z,9.56
2023-11-19T06:15:34.126Z,9.61
2023-11-19T06:18:02.206Z,9.63
2023-11-19T06:23:09.123Z,9.62
2023-11-19T06:25:36.154Z,9.67
2023-11-19T06:28:02.766Z,9.69
2023-11-19T06:30:30.316Z,9.66
2023-11-19T06:32:56.745Z,9.69
2023-11-19T06:35:23.298Z,9.69
2023-11-19T06:37:49.673Z,9.72
2023-11-19T06:40:17.027Z,9.73
2023-11-19T06:42:44.045Z,9.75
2023-11-19T06:45:10.654Z,9.78
2023-11-19T06:47:37.053Z,9.81
2023-11-19T06:50:06.021Z,9.81
2023-11-19T06:52:32.574Z,9.82
2023-11-19T06:57:29.861Z,9.87
2023-11-19T06:59:56.861Z,9.85
2023-11-19T07:02:26.344Z,9.85
2023-11-19T07:04:53.555Z,9.88
2023-11-19T07:07:20.445Z,9.92
2023-11-19T07:09:46.781Z,9.96
2023-11-19T07:12:14.615Z,10.02
2023-11-19T07:14:42.303Z,10.01
2023-11-19T07:17:09.536Z,10.02
2023-11-19T07:19:36.719Z,10.05
2023-11-19T07:22:03.468Z,10.08
2023-11-19T07:24:29.815Z,10.12
2023-11-19T07:26:56.211Z,10.13
2023-11-19T07:31:54.824Z,10.22
2023-11-19T07:34:21.843Z,10.22
2023-11-19T07:36:48.216Z,10.24
2023-11-19T07:39:14.781Z,10.33
2023-11-19T07:41:41.229Z,10.33
2023-11-19T07:44:07.672Z,10.33
2023-11-19T07:46:34.140Z,10.33
2023-11-19T07:49:00.547Z,10.34
2023-11-19T07:51:27.554Z,10.34
2023-11-19T07:53:53.919Z,10.36
2023-11-19T07:56:20.358Z,10.37
2023-11-19T07:58:46.789Z,10.39
2023-11-19T08:01:13.948Z,10.40
2023-11-19T08:03:40.477Z,10.40
2023-11-19T08:06:07.534Z,10.42
2023-11-19T08:08:35.115Z,10.46
2023-11-19T08:11:01.484Z,10.51
2023-11-19T08:13:27.803Z,10.49
2023-11-19T08:15:54.204Z,10.53
2023-11-19T08:18:20.641Z,10.57
2023-11-19T08:20:50.388Z,10.61
2023-11-19T08:23:16.757Z,10.67
2023-11-19T08:25:44.657Z,10.70
2023-11-19T08:28:11.093Z,10.73
2023-11-19T08:30:37.475Z,10.79
2023-11-19T08:33:04.326Z,10.84
2023-11-19T08:35:30.829Z,10.89
2023-11-19T08:37:57.653Z,10.92
2023-11-19T08:40:24.100Z,10.91
2023-11-19T08:42:51.289Z,10.93
2023-11-19T08:45:17.865Z,10.97
2023-11-19T08:47:45.566Z,11.02
2023-11-19T08:50:14.941Z,11.08
2023-11-19T08:52:41.431Z,11.16
2023-11-19T08:55:10.142Z,11.21
2023-11-19T08:57:36.569Z,11.23
2023-11-19T09:00:07.960Z,11.20
2023-11-19T09:02:34.510Z,11.21
2023-11-19T09:05:00.977Z,11.23
2023-11-19T09:07:27.362Z,11.22
2023-11-19T09:09:53.705Z,11.22
2023-11-19T09:12:20.116Z,11.19
2023-11-19T09:14:46.569Z,11.16
2023-11-19T09:17:13.651Z,11.16
2023-11-19T09:19:39.992Z,11.15
2023-11-19T09:22:06.370Z,11.25
2023-11-19T09:24:32.779Z,11.28
2023-11-19T09:27:32.898Z,11.31
2023-11-19T09:30:02.092Z,11.38
2023-11-19T09:32:29.227Z,11.36
2023-11-19T09:34:55.701Z,11.39
2023-11-19T09:37:22.481Z,11.44
2023-11-19T09:39:49.167Z,11.40
2023-11-19T09:42:16.148Z,11.41
2023-11-19T09:44:43.899Z,11.39
2023-11-19T09:47:12.191Z,11.35
2023-11-19T09:49:39.893Z,11.37
2023-11-19T09:52:06.415Z,11.42
2023-11-19T09:54:32.937Z,11.52
2023-11-19T09:57:11.844Z,11.59
2023-11-19T09:59:39.521Z,11.68
2023-11-19T10:02:07.834Z,11.77
2023-11-19T10:04:36.766Z,11.87
2023-11-19T10:07:04.773Z,11.90
2023-11-19T10:09:31.280Z,11.92
2023-11-19T10:11:57.687Z,11.97
2023-11-19T10:14:24.804Z,12.04
2023-11-19T10:16:51.460Z,12.04
2023-11-19T10:19:20.422Z,12.11
2023-11-19T10:21:47.337Z,12.18
2023-11-19T10:26:57.648Z,12.24
2023-11-19T10:29:24.606Z,12.40
2023-11-19T10:31:57.786Z,12.57
2023-11-19T10:34:26.794Z,12.98
2023-11-19T10:36:53.227Z,13.10
2023-11-19T10:39:21.530Z,13.05
2023-11-19T10:41:48.109Z,13.37
2023-11-19T10:44:34.100Z,13.58
2023-11-19T10:47:00.375Z,13.81
2023-11-19T10:49:26.814Z,14.22
2023-11-19T10:51:57.741Z,14.28
2023-11-19T10:54:26.123Z,14.15
2023-11-19T10:56:58.893Z,14.00
2023-11-19T10:59:32.078Z,13.86
2023-11-19T11:02:03.962Z,14.18
2023-11-19T11:04:33.790Z,14.06
2023-11-19T11:07:02.604Z,14.07
2023-11-19T11:09:30.871Z,14.08
2023-11-19T11:11:59.742Z,14.18
2023-11-19T11:14:27.734Z,14.47
2023-11-19T11:16:54.544Z,14.43
2023-11-19T11:19:21.329Z,14.41
2023-11-19T11:21:51.409Z,14.42
2023-11-19T11:24:48.223Z,14.55
2023-11-19T11:27:39.431Z,14.31
2023-11-19T11:30:20.351Z,14.56
2023-11-19T11:32:55.591Z,14.43
2023-11-19T11:35:37.194Z,14.85
2023-11-19T11:38:07.362Z,15.08
2023-11-19T11:40:35.227Z,14.96
2023-11-19T11:43:01.632Z,15.01
2023-11-19T11:45:38.221Z,15.32
2023-11-19T11:48:12.185Z,15.54
2023-11-19T11:50:54.734Z,15.69
2023-11-19T11:53:24.600Z,15.63
2023-11-19T11:55:58.236Z,15.80
2023-11-19T11:58:27.546Z,15.98
2023-11-19T12:00:54.413Z,16.00
2023-11-19T12:03:22.261Z,16.00
2023-11-19T12:05:49.487Z,16.02
2023-11-19T12:08:20.663Z,16.07
2023-11-19T12:10:53.986Z,15.71
2023-11-19T12:13:22.404Z,15.53
2023-11-19T12:16:11.581Z,15.81
2023-11-19T12:18:41.482Z,15.86
2023-11-19T12:21:10.018Z,16.13
2023-11-19T12:23:44.805Z,16.13
2023-11-19T12:26:22.614Z,16.19
2023-11-19T12:28:59.081Z,15.72
2023-11-19T12:31:25.646Z,15.14
2023-11-19T12:33:52.586Z,14.83
2023-11-19T12:36:19.282Z,14.75
2023-11-19T12:38:46.836Z,14.92
2023-11-19T12:41:13.708Z,14.83
2023-11-19T12:43:54.649Z,14.62
2023-11-19T12:46:23.182Z,14.58
2023-11-19T12:48:50.825Z,14.70
2023-11-19T12:51:17.452Z,14.61
2023-11-19T12:53:53.466Z,14.72
2023-11-19T12:56:19.929Z,14.81
2023-11-19T12:58:46.414Z,14.78
2023-11-19T13:01:17.233Z,14.90
2023-11-19T13:03:44.825Z,15.06
2023-11-19T13:06:12.764Z,15.10
2023-11-19T13:08:40.156Z,15.02
2023-11-19T13:11:08.456Z,14.90
2023-11-19T13:13:57.604Z,14.71
2023-11-19T13:16:24.205Z,14.54
2023-11-19T13:18:51.895Z,14.63
2023-11-19T13:21:18.653Z,14.66
2023-11-19T13:23:45.214Z,14.62
2023-11-19T13:26:11.709Z,14.47
2023-11-19T13:28:38.791Z,14.45
2023-11-19T13:31:09.795Z,14.63
2023-11-19T13:33:36.719Z,14.60
2023-11-19T13:36:07.716Z,14.60
2023-11-19T13:38:34.555Z,14.29
2023-11-19T13:41:00.953Z,14.17
2023-11-19T13:43:28.436Z,14.06
2023-11-19T13:45:55.055Z,13.95
2023-11-19T13:48:21.522Z,13.89
2023-11-19T13:50:48.514Z,13.81
2023-11-19T13:53:15.607Z,13.75
2023-11-19T13:55:42.527Z,13.73
2023-11-19T13:58:08.935Z,13.71
2023-11-19T14:00:35.354Z,13.62
2023-11-19T14:03:01.817Z,13.58
2023-11-19T14:07:58.253Z,13.48
2023-11-19T14:10:25.262Z,13.48
2023-11-19T14:12:51.691Z,13.44
2023-11-19T14:15:18.273Z,13.41
2023-11-19T14:17:44.874Z,13.46
2023-11-19T14:20:13.333Z,13.48
2023-11-19T14:22:59.318Z,13.46
2023-11-19T14:25:26.419Z,13.48
2023-11-19T14:27:52.783Z,13.49
2023-11-19T14:30:19.237Z,13.50
2023-11-19T14:32:47.454Z,13.45
2023-11-19T14:35:14.329Z,13.51
2023-11-19T14:37:40.806Z,13.53
2023-11-19T14:40:10.278Z,13.59
2023-11-19T14:42:37.755Z,13.75
2023-11-19T14:45:05.149Z,13.76
2023-11-19T14:47:31.919Z,13.70
2023-11-19T14:49:58.355Z,13.55
2023-11-19T14:52:24.724Z,13.42
2023-11-19T14:54:51.959Z,13.24
2023-11-19T14:57:18.320Z,13.16
2023-11-19T14:59:46.381Z,13.06
2023-11-19T15:02:12.883Z,13.00
2023-11-19T15:04:40.646Z,12.95
2023-11-19T15:07:07.279Z,12.86
2023-11-19T15:09:34.026Z,12.76
2023-11-19T15:12:00.675Z,12.66
2023-11-19T15:14:27.100Z,12.67
2023-11-19T15:16:54.697Z,12.61
2023-11-19T15:19:21.121Z,12.52
2023-11-19T15:21:48.263Z,12.38
2023-11-19T15:24:14.683Z,12.35
2023-11-19T15:26:41.199Z,12.32
2023-11-19T15:29:07.617Z,12.23
2023-11-19T15:31:34.183Z,12.21
2023-11-19T15:34:01.571Z,12.12
2023-11-19T15:36:37.400Z,12.07
2023-11-19T15:39:14.815Z,11.97
2023-11-19T15:41:41.321Z,11.96
2023-11-19T15:44:08.249Z,11.90
2023-11-19T15:47:11.939Z,11.87
2023-11-19T15:50:08.039Z,11.84
2023-11-19T15:53:02.480Z,11.80
2023-11-19T15:55:29.010Z,11.74
2023-11-19T15:58:14.836Z,11.75
2023-11-19T16:00:46.972Z,11.75
2023-11-19T16:03:15.992Z,11.84
2023-11-19T16:06:04.321Z,11.89
2023-11-19T16:08:44.371Z,11.95
2023-11-19T16:11:11.049Z,11.96
2023-11-19T16:13:37.892Z,11.91
2023-11-19T16:16:05.587Z,11.89
2023-11-19T16:18:32.746Z,11.86
2023-11-19T16:20:59.836Z,11.86
2023-11-19T16:23:27.243Z,11.85
2023-11-19T16:25:54.066Z,11.83
2023-11-19T16:28:22.107Z,11.79
2023-11-19T16:30:49.634Z,11.71
2023-11-19T16:33:21.424Z,11.61
2023-11-19T16:35:57.621Z,11.63
2023-11-19T16:38:26.946Z,11.64
2023-11-19T16:40:53.461Z,11.66
2023-11-19T16:43:19.916Z,11.67
2023-11-19T16:45:46.443Z,11.63
2023-11-19T16:48:13.475Z,11.55
2023-11-19T16:50:43.078Z,11.58
2023-11-19T16:53:09.591Z,11.52
2023-11-19T16:55:37.335Z,11.57
2023-11-19T16:58:04.766Z,11.52
2023-11-19T17:00:31.178Z,11.51
2023-11-19T17:03:00.993Z,11.53
2023-11-19T17:05:27.489Z,11.56
2023-11-19T17:07:54.653Z,11.55
2023-11-19T17:10:21.080Z,11.52
2023-11-19T17:12:48.480Z,11.51
2023-11-19T17:15:14.905Z,11.42
2023-11-19T17:17:41.415Z,11.42
2023-11-19T17:20:09.332Z,11.49
2023-11-19T17:22:37.375Z,11.43
2023-11-19T17:25:06.040Z,11.41
2023-11-19T17:27:32.855Z,11.41
2023-11-19T17:30:01.047Z,11.39
2023-11-19T17:32:27.528Z,11.38
2023-11-19T17:34:54.167Z,11.46
2023-11-19T17:37:20.592Z,11.45
2023-11-19T17:39:47.298Z,11.45
2023-11-19T17:42:13.934Z,11.41
2023-11-19T17:44:40.447Z,11.29
2023-11-19T17:47:08.072Z,11.32
2023-11-19T17:49:34.781Z,11.31
2023-11-19T17:52:01.196Z,11.43
2023-11-19T17:54:27.534Z,11.42
2023-11-19T17:56:54.276Z,11.42
2023-11-19T17:59:24.616Z,11.38
2023-11-19T18:01:59.217Z,11.32
2023-11-19T18:04:26.703Z,11.32
2023-11-19T18:06:53.445Z,11.31
2023-11-19T18:09:20.051Z,11.31
2023-11-19T18:11:46.498Z,11.28
2023-11-19T18:14:13.200Z,11.26
2023-11-19T18:16:40.417Z,11.32
2023-11-19T18:19:07.247Z,11.34
2023-11-19T18:21:34.946Z,11.28
2023-11-19T18:24:01.353Z,11.14
2023-11-19T18:26:44.651Z,11.16
2023-11-19T18:29:12.499Z,11.13
2023-11-19T18:31:39.278Z,11.19
2023-11-19T18:34:06.343Z,11.18
2023-11-19T18:36:37.275Z,11.12
2023-11-19T18:39:04.711Z,11.14
2023-11-19T18:41:31.490Z,11.10
2023-11-19T18:43:58.407Z,11.15
2023-11-19T18:46:24.823Z,11.14
2023-11-19T18:48:52.562Z,11.07
2023-11-19T18:51:18.882Z,11.11
2023-11-19T18:53:46.902Z,11.08
2023-11-19T18:56:14.028Z,11.05
2023-11-19T18:58:40.404Z,11.09
2023-11-19T19:01:09.098Z,11.11
2023-11-19T19:03:36.638Z,11.04
2023-11-19T19:06:04.263Z,11.09
2023-11-19T19:08:32.521Z,11.06
2023-11-19T19:10:59.713Z,10.99
2023-11-19T19:13:26.631Z,10.90
2023-11-19T19:15:53.132Z,10.89
2023-11-19T19:18:19.680Z,10.94
2023-11-19T19:20:46.394Z,10.92
2023-11-19T19:23:13.685Z,11.00
2023-11-19T19:25:40.983Z,10.92
2023-11-19T19:30:39.212Z,10.93
2023-11-19T19:33:05.721Z,10.93
2023-11-19T19:35:32.490Z,10.93
2023-11-19T19:37:59.630Z,10.91
2023-11-19T19:40:27.523Z,10.82
2023-11-19T19:42:55.381Z,10.74
2023-11-19T19:45:23.204Z,10.73
2023-11-19T19:47:49.719Z,10.80
2023-11-19T19:50:16.310Z,10.78
2023-11-19T19:52:43.791Z,10.73
2023-11-19T19:55:10.525Z,10.72
2023-11-19T19:57:37.021Z,10.77
2023-11-19T20:00:08.410Z,10.80
2023-11-19T20:02:35.708Z,10.80
2023-11-19T20:05:02.269Z,10.80
2023-11-19T20:07:28.803Z,10.85
2023-11-19T20:09:55.235Z,10.85
2023-11-19T20:12:21.698Z,10.78
2023-11-19T20:14:48.129Z,10.73
2023-11-19T20:17:14.985Z,10.72
2023-11-19T20:19:42.101Z,10.77
2023-11-19T20:22:08.522Z,10.76
2023-11-19T20:24:34.903Z,10.80
2023-11-19T20:27:01.300Z,10.77
2023-11-19T20:29:28.493Z,10.80
2023-11-19T20:31:54.917Z,10.89
2023-11-19T20:34:21.410Z,10.84
2023-11-19T20:36:48.445Z,10.80
2023-11-19T20:39:15.259Z,10.89
2023-11-19T20:41:42.606Z,10.85
2023-11-19T20:44:09.003Z,10.78
2023-11-19T20:46:35.446Z,10.86
2023-11-19T20:49:02.026Z,10.91
2023-11-19T20:51:32.034Z,10.96
2023-11-19T20:54:00.155Z,10.91
2023-11-19T20:56:26.593Z,11.06
2023-11-19T20:58:54.312Z,11.07
2023-11-19T21:01:20.952Z,11.06
2023-11-19T21:03:47.457Z,10.98
2023-11-19T21:06:16.646Z,11.10
2023-11-19T21:08:43.189Z,11.16
2023-11-19T21:11:10.756Z,11.26
2023-11-19T21:13:37.154Z,11.15
2023-11-19T21:16:04.424Z,11.07
2023-11-19T21:18:31.032Z,10.96
2023-11-19T21:20:57.629Z,10.97
2023-11-19T21:23:25.308Z,11.04
2023-11-19T21:25:51.633Z,10.98
2023-11-19T21:28:18.696Z,10.91
2023-11-19T21:30:45.346Z,11.01
2023-11-19T21:33:11.825Z,11.24
2023-11-19T21:35:38.284Z,11.18
2023-11-19T21:38:05.141Z,11.19
2023-11-19T21:40:32.403Z,11.13
2023-11-19T21:43:00.139Z,11.00
2023-11-19T21:45:30.278Z,11.03
2023-11-19T21:47:56.381Z,10.95
2023-11-19T21:50:22.935Z,10.92
2023-11-19T21:52:50.320Z,10.93
2023-11-19T21:55:16.696Z,10.90
2023-11-19T21:57:43.202Z,10.98
2023-11-19T22:00:11.265Z,11.03
2023-11-19T22:02:38.348Z,10.99
2023-11-19T22:05:09.440Z,11.07
2023-11-19T22:07:36.122Z,11.10
2023-11-19T22:10:03.681Z,11.08
2023-11-19T22:12:30.218Z,11.01
2023-11-19T22:14:56.553Z,11.10
2023-11-19T22:17:23.550Z,11.09
2023-11-19T22:19:50.569Z,11.02
2023-11-19T22:22:16.924Z,10.99
2023-11-19T22:24:43.312Z,11.00
2023-11-19T22:27:10.573Z,10.92
2023-11-19T22:29:39.554Z,10.97
2023-11-19T22:32:06.660Z,10.98
2023-11-19T22:34:33.062Z,10.95
2023-11-19T22:37:00.112Z,10.88
2023-11-19T22:39:26.498Z,10.97
2023-11-19T22:41:52.886Z,10.89
2023-11-19T22:44:19.218Z,11.01
2023-11-19T22:46:46.241Z,11.03
2023-11-19T22:49:12.576Z,10.95
2023-11-19T22:51:38.953Z,10.87
2023-11-19T22:54:06.349Z,10.79
2023-11-19T22:56:32.755Z,10.79
2023-11-19T22:58:59.158Z,10.69
2023-11-19T23:01:25.617Z,10.69
2023-11-19T23:03:52.435Z,10.70
2023-11-19T23:06:19.632Z,10.71
2023-11-19T23:08:46.028Z,10.71
2023-11-19T23:11:13.030Z,10.62
2023-11-19T23:13:39.452Z,10.67
2023-11-19T23:16:12.067Z,10.65
2023-11-19T23:18:38.480Z,10.66
2023-11-19T23:21:05.287Z,10.69
2023-11-19T23:23:31.706Z,10.64
2023-11-19T23:25:58.287Z,10.60
2023-11-19T23:28:27.455Z,10.58
2023-11-19T23:30:53.895Z,10.58
2023-11-19T23:33:20.322Z,10.60
2023-11-19T23:35:46.758Z,10.62
2023-11-19T23:38:13.227Z,10.64
2023-11-19T23:40:39.567Z,10.73
2023-11-19T23:43:06.046Z,10.71
2023-11-19T23:45:33.149Z,10.68
2023-11-19T23:47:59.749Z,10.76
2023-11-19T23:50:26.128Z,10.78
2023-11-19T23:52:53.286Z,10.76
2023-11-19T23:55:19.642Z,10.76
2023-11-19T23:57:46.063Z,10.82
